Time;durP1;ratioP1;P1;durP2;ratioP2;P2;SDS_P1;SDS_P2;PMS_P1;PMS_P2;Temp;Humidity;BMP_temperature;BMP_pressure;BME280_temperature;BME280_humidity;BME280_pressure;Samples;Min_cycle;Max_cycle;Signal;HPM_P1;HPM_P2
2023/05/31 00:01:08;;;;;;;;;;;;;;;15.20;53.20;98999.34;5014725;27;103349;-68
2023/05/31 00:03:40;;;;;;;;;;;;;;;15.32;53.50;98995.66;5018297;27;102891;-68
2023/05/31 00:06:08;;;;;;;;;;;;;;;15.01;53.65;98997.44;4995713;28;103965;-68
2023/05/31 00:08:36;;;;;;;;;;;;;;;14.99;52.67;98994.06;5016946;27;104418;-68
2023/05/31 00:11:05;;;;;;;;;;;;;;;15.19;52.90;98999.47;5016742;27;103387;-68
2023/05/31 00:13:33;;;;;;;;;;;;;;;15.11;52.93;98986.84;5015375;27;102878;-68
2023/05/31 00:16:00;;;;;;;;;;;;;;;15.00;52.52;98995.75;4998553;27;103182;-68
2023/05/31 00:18:28;;;;;;;;;;;;;;;15.15;52.41;98998.91;5017775;27;103225;-68
2023/05/31 00:20:56;;;;;;;;;;;;;;;15.22;52.35;98994.75;5014887;27;103220;-68
2023/05/31 00:23:23;;;;;;;;;;;;;;;15.29;53.05;98995.91;4993303;28;103132;-68
2023/05/31 00:25:51;;;;;;;;;;;;;;;15.33;53.21;98993.81;5011002;27;103831;-68
2023/05/31 00:28:20;;;;;;;;;;;;;;;14.68;55.94;98994.97;5017000;27;103146;-68
2023/05/31 00:30:48;;;;;;;;;;;;;;;14.60;55.05;99001.91;4997588;28;104174;-68
2023/05/31 00:33:15;;;;;;;;;;;;;;;14.35;55.53;98998.66;5009744;27;102656;-68
2023/05/31 00:35:43;;;;;;;;;;;;;;;14.24;56.11;98996.00;5003134;28;102737;-68
2023/05/31 00:38:11;;;;;;;;;;;;;;;14.19;56.75;98998.19;4995995;28;103786;-68
2023/05/31 00:40:38;;;;;;;;;;;;;;;14.38;55.94;98997.53;4996709;28;104162;-68
2023/05/31 00:43:09;;;;;;;;;;;;;;;14.02;55.91;98996.06;5020918;27;102797;-68
2023/05/31 00:45:38;;;;;;;;;;;;;;;14.40;55.69;98996.44;5011297;27;104198;-68
2023/05/31 00:48:06;;;;;;;;;;;;;;;14.36;56.33;98997.69;4999990;28;103949;-68
2023/05/31 00:50:34;;;;;;;;;;;;;;;14.58;55.83;98993.22;5013328;28;103228;-68
2023/05/31 00:53:02;;;;;;;;;;;;;;;14.62;55.93;98987.53;5013318;27;102844;-68
2023/05/31 00:55:30;;;;;;;;;;;;;;;14.02;56.92;98989.91;5003816;28;104449;-68
2023/05/31 00:58:00;;;;;;;;;;;;;;;14.36;55.35;98992.38;4995331;27;104215;-67
2023/05/31 01:00:31;;;;;;;;;;;;;;;14.35;55.52;98992.47;4994466;28;103314;-68
2023/05/31 01:03:02;;;;;;;;;;;;;;;14.25;55.83;98995.03;4995312;27;103234;-68
2023/05/31 01:05:30;;;;;;;;;;;;;;;14.38;55.54;98995.72;5015491;27;103788;-68
2023/05/31 01:07:58;;;;;;;;;;;;;;;14.50;55.37;98994.72;4996184;27;104138;-68
2023/05/31 01:10:26;;;;;;;;;;;;;;;14.60;54.90;98988.59;4993126;28;103173;-68
2023/05/31 01:12:57;;;;;;;;;;;;;;;14.29;57.12;98996.47;4996782;28;102740;-68
2023/05/31 01:15:26;;;;;;;;;;;;;;;14.33;57.13;98989.97;5014735;27;102974;-68
2023/05/31 01:17:59;;;;;;;;;;;;;;;14.41;56.09;98991.97;5008031;27;104009;-68
2023/05/31 01:20:31;;;;;;;;;;;;;;;14.26;56.54;98988.72;5015102;27;103239;-68
2023/05/31 01:23:05;;;;;;;;;;;;;;;14.17;56.59;98989.53;5003997;28;102962;-68
2023/05/31 01:25:44;;;;;;;;;;;;;;;14.30;55.59;98987.53;4993904;27;103149;-69
2023/05/31 01:28:15;;;;;;;;;;;;;;;14.45;56.02;98996.94;4998657;28;104222;-67
2023/05/31 01:30:45;;;;;;;;;;;;;;;14.37;55.32;98986.06;4999239;27;104290;-67
2023/05/31 01:33:13;;;;;;;;;;;;;;;14.29;55.82;98992.94;4993533;28;102755;-68
2023/05/31 01:35:40;;;;;;;;;;;;;;;14.39;55.55;99000.09;5019387;27;103868;-67
2023/05/31 01:38:08;;;;;;;;;;;;;;;14.21;56.07;98990.09;4994326;28;103965;-68
2023/05/31 01:40:36;;;;;;;;;;;;;;;14.30;55.95;98992.84;4999807;27;104470;-68
2023/05/31 01:43:06;;;;;;;;;;;;;;;14.34;56.53;99001.44;5000429;28;102719;-68
2023/05/31 01:45:39;;;;;;;;;;;;;;;14.08;57.15;99000.03;4993206;28;103024;-68
2023/05/31 01:48:11;;;;;;;;;;;;;;;13.62;57.59;99002.91;4995545;28;104152;-67
2023/05/31 01:50:40;;;;;;;;;;;;;;;13.34;58.89;99005.09;4994335;28;104286;-67
2023/05/31 01:53:08;;;;;;;;;;;;;;;13.52;59.07;99001.97;5013791;27;102733;-68
2023/05/31 01:55:36;;;;;;;;;;;;;;;13.88;57.16;98999.00;4999818;28;103281;-69
2023/05/31 01:58:08;;;;;;;;;;;;;;;13.82;57.68;99004.81;5000234;27;105381;-70
2023/05/31 02:00:36;;;;;;;;;;;;;;;13.89;58.52;98996.22;5015789;27;105836;-70
2023/05/31 02:03:05;;;;;;;;;;;;;;;13.51;60.02;99000.25;5016036;27;102733;-70
2023/05/31 02:05:33;;;;;;;;;;;;;;;13.26;59.56;99001.38;4998392;28;103933;-69
2023/05/31 02:08:03;;;;;;;;;;;;;;;13.48;59.78;99009.31;5001705;27;105324;-69
2023/05/31 02:10:31;;;;;;;;;;;;;;;13.73;58.55;99005.53;4993932;28;104799;-70
2023/05/31 02:12:59;;;;;;;;;;;;;;;13.80;58.71;99007.59;4999027;27;102667;-69
2023/05/31 02:15:27;;;;;;;;;;;;;;;13.85;58.22;99009.88;5000605;27;103801;-70
2023/05/31 02:17:58;;;;;;;;;;;;;;;13.71;58.81;99012.81;4998697;27;105994;-67
2023/05/31 02:20:27;;;;;;;;;;;;;;;13.63;59.53;98999.28;4996835;27;104215;-69
2023/05/31 02:22:55;;;;;;;;;;;;;;;13.03;62.33;99005.78;5019793;27;102670;-69
2023/05/31 02:25:23;;;;;;;;;;;;;;;13.21;61.72;99004.38;5013656;27;102976;-70
2023/05/31 02:27:50;;;;;;;;;;;;;;;12.90;62.30;99004.19;5015080;28;103287;-70
2023/05/31 02:30:18;;;;;;;;;;;;;;;12.60;63.27;99007.38;4993821;28;104137;-70
2023/05/31 02:32:46;;;;;;;;;;;;;;;12.84;62.41;99004.66;5020449;27;103333;-70
2023/05/31 02:35:15;;;;;;;;;;;;;;;13.00;60.73;99006.00;4995179;28;103772;-69
2023/05/31 02:37:46;;;;;;;;;;;;;;;13.23;61.57;99002.44;4991032;28;104254;-70
2023/05/31 02:40:14;;;;;;;;;;;;;;;13.28;61.46;99004.72;4993171;28;104319;-67
2023/05/31 02:42:42;;;;;;;;;;;;;;;12.98;61.16;99007.09;5019593;27;102607;-70
2023/05/31 02:45:12;;;;;;;;;;;;;;;13.15;60.79;99004.00;5002177;28;103616;-70
2023/05/31 02:47:40;;;;;;;;;;;;;;;13.40;59.84;99001.13;5009432;27;104534;-70
2023/05/31 02:50:11;;;;;;;;;;;;;;;13.46;59.52;98992.69;5011374;27;105026;-70
2023/05/31 02:52:54;;;;;;;;;;;;;;;13.52;59.92;98991.34;4996250;28;102741;-70
2023/05/31 02:55:38;;;;;;;;;;;;;;;13.15;61.55;98994.25;4997544;28;104300;-70
2023/05/31 02:58:17;;;;;;;;;;;;;;;12.81;63.22;99003.09;5017491;28;104361;-70
2023/05/31 03:01:05;;;;;;;;;;;;;;;12.82;63.41;99006.59;5015912;28;103989;-70
2023/05/31 03:03:39;;;;;;;;;;;;;;;12.62;64.71;99005.44;4997479;28;103440;-69
2023/05/31 03:06:20;;;;;;;;;;;;;;;12.68;64.63;98999.69;4996323;28;104130;-70
2023/05/31 03:08:50;;;;;;;;;;;;;;;12.67;64.55;99000.63;5006695;28;103994;-72
2023/05/31 03:11:17;;;;;;;;;;;;;;;12.77;64.09;99004.28;5005072;27;103767;-72
2023/05/31 03:13:47;;;;;;;;;;;;;;;12.92;62.73;99003.09;5004441;27;102723;-72
2023/05/31 03:16:20;;;;;;;;;;;;;;;12.84;63.34;99000.19;4989050;28;104052;-72
2023/05/31 03:18:48;;;;;;;;;;;;;;;12.78;63.25;99006.81;4982098;28;103328;-72
2023/05/31 03:21:16;;;;;;;;;;;;;;;12.84;63.97;99004.66;4995447;28;103120;-72
2023/05/31 03:23:51;;;;;;;;;;;;;;;12.52;65.44;99010.59;5009004;27;102803;-71
2023/05/31 03:26:19;;;;;;;;;;;;;;;12.34;65.27;99005.84;5016493;28;102803;-72
2023/05/31 03:28:47;;;;;;;;;;;;;;;12.62;64.94;99006.31;4991570;28;105021;-71
2023/05/31 03:31:15;;;;;;;;;;;;;;;12.88;62.81;99006.97;4990693;28;103800;-71
2023/05/31 03:33:43;;;;;;;;;;;;;;;12.82;63.59;99002.13;5016418;28;102852;-71
2023/05/31 03:36:11;;;;;;;;;;;;;;;12.74;64.35;99001.88;5013845;27;102819;-72
2023/05/31 03:38:38;;;;;;;;;;;;;;;12.63;64.46;99002.66;4999162;28;105611;-69
2023/05/31 03:41:10;;;;;;;;;;;;;;;12.89;63.13;99003.34;4999830;27;104889;-74
2023/05/31 03:43:38;;;;;;;;;;;;;;;13.03;62.32;99012.88;4997911;28;102752;-76
2023/05/31 03:46:05;;;;;;;;;;;;;;;12.77;64.70;99005.13;4995304;28;104070;-72
2023/05/31 03:48:33;;;;;;;;;;;;;;;12.55;64.28;99013.00;4992966;28;104277;-73
2023/05/31 03:51:01;;;;;;;;;;;;;;;12.55;64.21;99014.81;4996738;28;103541;-70
2023/05/31 03:53:29;;;;;;;;;;;;;;;12.51;63.44;99014.22;4991595;28;102927;-70
2023/05/31 03:56:00;;;;;;;;;;;;;;;12.87;62.71;99012.38;4989477;28;102859;-69
2023/05/31 03:58:29;;;;;;;;;;;;;;;12.95;63.02;99016.13;5004419;27;103424;-70
2023/05/31 04:00:57;;;;;;;;;;;;;;;13.05;62.39;99014.44;4988542;28;104454;-70
2023/05/31 04:03:27;;;;;;;;;;;;;;;13.07;58.58;99011.69;4988933;27;102701;-70
2023/05/31 04:05:55;;;;;;;;;;;;;;;13.28;60.28;99021.50;5015788;27;102757;-70
2023/05/31 04:08:23;;;;;;;;;;;;;;;13.39;60.50;99018.00;4997399;27;103425;-70
2023/05/31 04:10:51;;;;;;;;;;;;;;;13.48;60.72;99019.09;5013642;27;103379;-70
2023/05/31 04:13:19;;;;;;;;;;;;;;;13.41;61.92;99023.19;4991326;27;103240;-70
2023/05/31 04:15:48;;;;;;;;;;;;;;;13.43;61.41;99023.91;5007747;27;102716;-70
2023/05/31 04:18:18;;;;;;;;;;;;;;;13.52;60.86;99021.41;4983446;28;104192;-71
2023/05/31 04:20:45;;;;;;;;;;;;;;;13.59;62.67;99035.00;5013570;28;103091;-69
2023/05/31 04:23:13;;;;;;;;;;;;;;;13.46;63.86;99036.94;4998570;28;102894;-70
2023/05/31 04:25:41;;;;;;;;;;;;;;;13.59;63.52;99027.88;5013289;27;103199;-70
2023/05/31 04:28:09;;;;;;;;;;;;;;;13.62;62.74;99030.31;4992728;28;103295;-70
2023/05/31 04:30:38;;;;;;;;;;;;;;;13.67;62.41;99032.63;4997187;28;103236;-70
2023/05/31 04:33:07;;;;;;;;;;;;;;;13.70;63.89;99032.34;4991780;28;103876;-70
2023/05/31 04:35:36;;;;;;;;;;;;;;;13.80;61.61;99039.47;4995176;28;104012;-71
2023/05/31 04:38:04;;;;;;;;;;;;;;;13.94;61.73;99030.38;4990895;28;104197;-70
2023/05/31 04:40:32;;;;;;;;;;;;;;;13.97;61.44;99046.09;4995532;28;103162;-70
2023/05/31 04:43:01;;;;;;;;;;;;;;;14.08;60.80;99037.25;4998881;28;102780;-71
2023/05/31 04:45:32;;;;;;;;;;;;;;;14.09;59.38;99039.75;5005881;28;102734;-73
2023/05/31 04:48:02;;;;;;;;;;;;;;;14.13;59.90;99043.00;4993040;28;104054;-71
2023/05/31 04:50:33;;;;;;;;;;;;;;;14.15;56.73;99043.72;4989421;28;103355;-72
2023/05/31 04:53:00;;;;;;;;;;;;;;;14.39;56.09;99036.44;4993243;28;103866;-71
2023/05/31 04:55:29;;;;;;;;;;;;;;;14.34;56.29;99039.47;4996643;27;102709;-72
2023/05/31 04:58:02;;;;;;;;;;;;;;;14.48;56.12;99035.69;4997811;28;103988;-72
2023/05/31 05:00:31;;;;;;;;;;;;;;;14.56;54.86;99043.03;4998775;28;103338;-71
2023/05/31 05:03:10;;;;;;;;;;;;;;;14.77;55.55;99051.84;4996349;28;102854;-72
2023/05/31 05:05:46;;;;;;;;;;;;;;;14.79;55.19;99044.63;5014858;27;103399;-72
2023/05/31 05:08:14;;;;;;;;;;;;;;;14.69;55.63;99043.69;4998922;28;104184;-72
2023/05/31 05:10:42;;;;;;;;;;;;;;;14.60;56.14;99039.97;4995999;28;106089;-72
2023/05/31 05:13:10;;;;;;;;;;;;;;;14.92;56.22;99046.13;4995337;28;102633;-72
2023/05/31 05:15:41;;;;;;;;;;;;;;;14.83;54.22;99046.03;4996638;28;102955;-72
2023/05/31 05:18:08;;;;;;;;;;;;;;;15.00;54.28;99043.66;5004693;28;103231;-71
2023/05/31 05:20:38;;;;;;;;;;;;;;;15.16;54.56;99047.66;4993314;28;103365;-72
2023/05/31 05:23:07;;;;;;;;;;;;;;;15.09;53.91;99058.84;5003243;28;102914;-71
2023/05/31 05:25:36;;;;;;;;;;;;;;;15.25;53.84;99053.03;5014393;28;102947;-71
2023/05/31 05:28:04;;;;;;;;;;;;;;;15.37;53.09;99054.66;4989476;27;105001;-71
2023/05/31 05:31:17;;;;;;;;;;;;;;;15.27;52.39;99044.94;5089658;27;102564;-60
2023/05/31 05:33:47;;;;;;;;;;;;;;;15.36;52.90;99050.28;5077559;27;102905;-60
2023/05/31 05:36:15;;;;;;;;;;;;;;;15.45;53.82;99049.50;5039584;27;103275;-61
2023/05/31 05:38:48;;;;;;;;;;;;;;;15.71;52.62;99039.28;5026426;27;103295;-60
2023/05/31 05:41:19;;;;;;;;;;;;;;;15.54;53.74;99054.06;5033509;27;102657;-61
2023/05/31 05:43:46;;;;;;;;;;;;;;;15.81;53.67;99048.13;5035069;27;104658;-61
2023/05/31 05:46:18;;;;;;;;;;;;;;;15.69;51.87;99040.38;5035793;27;103667;-61
2023/05/31 05:48:46;;;;;;;;;;;;;;;15.80;52.63;99043.81;5040209;27;103147;-61
2023/05/31 05:51:16;;;;;;;;;;;;;;;16.06;53.44;99049.44;5042852;27;102872;-60
2023/05/31 05:53:44;;;;;;;;;;;;;;;16.08;52.06;99048.34;5030347;27;102956;-60
2023/05/31 05:56:17;;;;;;;;;;;;;;;16.22;52.29;99044.47;5042817;27;103221;-60
2023/05/31 05:58:54;;;;;;;;;;;;;;;16.23;51.41;99051.47;5041751;27;103215;-60
2023/05/31 06:01:42;;;;;;;;;;;;;;;16.39;51.36;99043.78;5034282;27;102755;-60
2023/05/31 06:04:14;;;;;;;;;;;;;;;16.61;50.73;99043.53;5040730;27;102776;-60
2023/05/31 06:06:44;;;;;;;;;;;;;;;16.77;50.84;99050.97;5045130;27;103294;-61
2023/05/31 06:09:13;;;;;;;;;;;;;;;16.58;50.12;99049.16;5037104;27;103275;-60
2023/05/31 06:11:41;;;;;;;;;;;;;;;16.96;49.83;99042.09;5031631;27;102831;-62
2023/05/31 06:14:10;;;;;;;;;;;;;;;17.19;51.08;99051.47;5034622;27;102766;-60
2023/05/31 06:16:43;;;;;;;;;;;;;;;17.48;50.07;99056.75;5039961;27;103493;-61
2023/05/31 06:19:12;;;;;;;;;;;;;;;17.21;48.25;99052.16;5035603;27;103344;-61
2023/05/31 06:21:41;;;;;;;;;;;;;;;17.63;47.41;99050.81;5029809;27;102887;-61
2023/05/31 06:24:09;;;;;;;;;;;;;;;17.59;47.64;99043.25;5041209;27;102921;-61
2023/05/31 06:26:38;;;;;;;;;;;;;;;17.87;47.43;99037.78;5036392;27;103818;-60
2023/05/31 06:29:06;;;;;;;;;;;;;;;17.72;47.62;99039.25;5036216;27;103959;-60
2023/05/31 06:31:55;;;;;;;;;;;;;;;17.39;46.59;99045.09;5040626;27;103020;-60
2023/05/31 06:34:25;;;;;;;;;;;;;;;18.08;46.89;99045.50;5039132;27;104573;-60
2023/05/31 06:36:55;;;;;;;;;;;;;;;17.98;46.74;99038.53;5042525;27;103401;-60
2023/05/31 06:39:23;;;;;;;;;;;;;;;17.86;46.71;99045.91;5029331;27;103484;-60
2023/05/31 06:41:51;;;;;;;;;;;;;;;18.39;46.87;99032.63;5032811;27;103096;-61
2023/05/31 06:44:39;;;;;;;;;;;;;;;18.34;46.16;99034.94;5010379;27;102728;-61
2023/05/31 06:47:41;;;;;;;;;;;;;;;18.17;45.57;99033.94;5022634;27;104247;-62
2023/05/31 06:50:15;;;;;;;;;;;;;;;18.42;46.15;99032.34;5018792;27;103076;-61
2023/05/31 06:53:03;;;;;;;;;;;;;;;18.67;46.78;99031.59;5029208;27;103175;-61
2023/05/31 06:55:42;;;;;;;;;;;;;;;18.78;45.24;99027.88;5027670;27;102665;-60
2023/05/31 06:58:15;;;;;;;;;;;;;;;19.28;46.64;99026.25;5018903;27;103234;-59
2023/05/31 07:00:42;;;;;;;;;;;;;;;19.53;43.83;99021.88;5017454;27;104973;-60
2023/05/31 07:03:14;;;;;;;;;;;;;;;19.47;43.99;99025.19;5026600;27;102815;-60
2023/05/31 07:05:43;;;;;;;;;;;;;;;19.88;44.14;99021.69;5024724;27;104892;-64
2023/05/31 07:08:16;;;;;;;;;;;;;;;19.42;44.19;99028.38;5032548;27;105272;-64
2023/05/31 07:11:03;;;;;;;;;;;;;;;19.74;43.31;99019.63;5020267;27;104315;-69
2023/05/31 07:13:31;;;;;;;;;;;;;;;19.97;45.14;99012.69;5022814;27;102735;-69
2023/05/31 07:15:59;;;;;;;;;;;;;;;19.97;44.02;99018.06;5024205;27;102781;-69
2023/05/31 07:18:28;;;;;;;;;;;;;;;20.42;42.99;99011.50;5017621;27;105586;-69
2023/05/31 07:20:58;;;;;;;;;;;;;;;20.73;42.48;99012.53;5027564;27;104833;-69
2023/05/31 07:23:27;;;;;;;;;;;;;;;21.05;42.67;99012.50;5028219;27;102601;-69
2023/05/31 07:25:57;;;;;;;;;;;;;;;20.36;43.13;99014.81;5028006;27;102710;-69
2023/05/31 07:28:25;;;;;;;;;;;;;;;20.38;41.86;99010.16;5017460;27;104014;-69
2023/05/31 07:30:55;;;;;;;;;;;;;;;20.06;41.28;99011.72;5017280;27;102914;-69
2023/05/31 07:33:23;;;;;;;;;;;;;;;21.35;40.91;99009.16;5032643;27;102660;-69
2023/05/31 07:36:00;;;;;;;;;;;;;;;20.78;41.19;99012.84;5029436;27;102642;-69
2023/05/31 07:38:28;;;;;;;;;;;;;;;20.80;40.63;99002.78;5024211;27;103212;-68
2023/05/31 07:40:56;;;;;;;;;;;;;;;20.87;40.82;99003.81;5026513;27;103172;-69
2023/05/31 07:43:24;;;;;;;;;;;;;;;21.15;39.66;99002.47;5022843;27;103165;-69
2023/05/31 07:45:54;;;;;;;;;;;;;;;21.46;39.25;98999.03;5024090;27;102706;-69
2023/05/31 07:48:22;;;;;;;;;;;;;;;21.88;39.13;98999.59;5010709;27;104319;-61
2023/05/31 07:50:50;;;;;;;;;;;;;;;22.63;38.29;98997.94;5017992;27;103162;-62
2023/05/31 07:53:19;;;;;;;;;;;;;;;21.71;38.06;98989.88;5020988;27;103424;-62
2023/05/31 07:55:47;;;;;;;;;;;;;;;22.21;38.95;98998.38;5028708;27;103082;-61
2023/05/31 07:58:15;;;;;;;;;;;;;;;22.15;37.53;98992.88;5024081;27;104157;-62
2023/05/31 08:00:45;;;;;;;;;;;;;;;22.60;37.50;98986.72;5023203;27;103137;-62
2023/05/31 08:03:15;;;;;;;;;;;;;;;23.31;36.82;98984.38;5020910;27;102992;-62
2023/05/31 08:05:48;;;;;;;;;;;;;;;22.95;36.97;98989.63;5022969;27;104144;-61
2023/05/31 08:08:16;;;;;;;;;;;;;;;23.27;36.04;98980.38;5026940;27;103002;-61
2023/05/31 08:10:45;;;;;;;;;;;;;;;23.26;36.21;98983.25;5017050;27;103238;-68
2023/05/31 08:13:13;;;;;;;;;;;;;;;24.21;34.20;98966.13;5028880;27;102631;-69
2023/05/31 08:15:41;;;;;;;;;;;;;;;24.28;35.55;98975.09;5030995;27;103097;-68
2023/05/31 08:18:11;;;;;;;;;;;;;;;25.31;34.02;98970.88;5024297;27;104249;-68
2023/05/31 08:20:38;;;;;;;;;;;;;;;24.81;34.59;98979.22;5020166;27;103280;-68
2023/05/31 08:23:07;;;;;;;;;;;;;;;24.44;34.85;98980.28;5023853;27;102655;-69
2023/05/31 08:25:35;;;;;;;;;;;;;;;24.52;34.99;98972.06;5027829;27;102697;-68
2023/05/31 08:28:04;;;;;;;;;;;;;;;25.82;34.21;98966.00;5026878;27;103816;-68
2023/05/31 08:30:32;;;;;;;;;;;;;;;26.54;34.49;98965.38;5023682;27;103146;-61
2023/05/31 08:33:00;;;;;;;;;;;;;;;25.09;34.98;98971.13;5018800;27;102794;-68
2023/05/31 08:35:30;;;;;;;;;;;;;;;26.04;33.96;98971.25;5030906;27;102669;-68
2023/05/31 08:38:00;;;;;;;;;;;;;;;26.53;33.36;98963.72;5022044;27;102975;-69
2023/05/31 08:40:28;;;;;;;;;;;;;;;25.04;33.56;98971.69;5025961;27;103208;-68
2023/05/31 08:42:56;;;;;;;;;;;;;;;25.23;34.49;98970.19;5020730;27;102936;-68
2023/05/31 08:45:28;;;;;;;;;;;;;;;25.42;34.18;98963.22;5025850;27;104010;-68
2023/05/31 08:48:03;;;;;;;;;;;;;;;25.52;35.05;98964.56;5027443;27;104019;-68
2023/05/31 08:50:33;;;;;;;;;;;;;;;25.17;32.94;98960.16;5022146;27;103168;-68
2023/05/31 08:53:03;;;;;;;;;;;;;;;25.23;34.25;98959.38;5026761;27;102777;-68
2023/05/31 08:55:31;;;;;;;;;;;;;;;26.32;33.36;98955.75;5012216;27;102758;-61
2023/05/31 08:57:59;;;;;;;;;;;;;;;25.72;33.67;98954.69;5019534;27;103922;-61
2023/05/31 09:00:29;;;;;;;;;;;;;;;25.12;33.85;98959.91;5021519;27;103253;-61
2023/05/31 09:02:57;;;;;;;;;;;;;;;25.83;34.41;98939.75;5020219;27;102682;-61
2023/05/31 09:05:25;;;;;;;;;;;;;;;26.97;33.59;98950.44;5023889;27;103917;-61
2023/05/31 09:07:54;;;;;;;;;;;;;;;25.09;33.28;98952.22;5024526;27;103046;-61
2023/05/31 09:10:21;;;;;;;;;;;;;;;25.14;34.42;98952.44;5015148;27;103170;-61
2023/05/31 09:12:49;;;;;;;;;;;;;;;24.70;34.88;98945.41;5031581;27;102673;-68
2023/05/31 09:15:19;;;;;;;;;;;;;;;25.04;33.60;98955.47;5028751;27;102669;-68
2023/05/31 09:17:49;;;;;;;;;;;;;;;25.57;32.91;98945.84;5026353;27;103238;-68
2023/05/31 09:20:17;;;;;;;;;;;;;;;26.44;31.80;98949.53;5019965;27;103292;-69
2023/05/31 09:22:47;;;;;;;;;;;;;;;27.59;31.13;98949.94;5026474;27;102581;-68
2023/05/31 09:25:15;;;;;;;;;;;;;;;26.99;33.01;98953.78;5033834;27;103884;-68
2023/05/31 09:27:44;;;;;;;;;;;;;;;27.84;31.53;98952.78;5028027;27;103029;-61
2023/05/31 09:30:15;;;;;;;;;;;;;;;25.17;32.21;98950.19;5020369;27;103151;-62
2023/05/31 09:32:52;;;;;;;;;;;;;;;26.98;33.93;98954.81;5030926;27;103163;-61
2023/05/31 09:35:27;;;;;;;;;;;;;;;25.12;31.73;98949.09;5023227;27;102769;-62
2023/05/31 09:37:56;;;;;;;;;;;;;;;26.84;32.41;98939.59;5016889;27;103222;-61
2023/05/31 09:40:24;;;;;;;;;;;;;;;27.99;30.41;98938.91;5015082;27;103243;-61
2023/05/31 09:42:53;;;;;;;;;;;;;;;25.49;32.60;98940.63;5021402;27;103445;-61
2023/05/31 09:45:24;;;;;;;;;;;;;;;27.13;32.02;98937.50;5016108;27;102668;-61
2023/05/31 09:47:53;;;;;;;;;;;;;;;28.31;31.31;98927.09;5017675;27;103820;-61
2023/05/31 09:50:22;;;;;;;;;;;;;;;27.64;29.06;98922.16;5023289;27;103281;-62
2023/05/31 09:52:56;;;;;;;;;;;;;;;28.24;29.26;98931.72;5013827;27;102909;-61
2023/05/31 09:55:24;;;;;;;;;;;;;;;28.41;29.71;98934.75;5013288;27;102806;-61
2023/05/31 09:57:57;;;;;;;;;;;;;;;28.49;29.11;98935.31;5019919;27;104195;-61
2023/05/31 10:00:26;;;;;;;;;;;;;;;29.43;28.86;98926.16;5019183;27;103734;-61
2023/05/31 10:02:55;;;;;;;;;;;;;;;27.28;29.88;98925.38;5020311;27;103044;-61
2023/05/31 10:05:24;;;;;;;;;;;;;;;28.43;29.73;98921.78;5026372;27;104141;-61
2023/05/31 10:07:53;;;;;;;;;;;;;;;28.97;28.47;98924.72;5020105;27;103267;-69
2023/05/31 10:10:21;;;;;;;;;;;;;;;27.29;30.06;98921.59;5017476;27;103236;-68
2023/05/31 10:12:50;;;;;;;;;;;;;;;28.16;27.89;98919.22;5023799;27;102656;-69
2023/05/31 10:15:20;;;;;;;;;;;;;;;28.68;29.54;98919.94;5019985;27;102997;-69
2023/05/31 10:17:51;;;;;;;;;;;;;;;28.01;28.96;98915.94;5014247;27;103359;-69
2023/05/31 10:20:20;;;;;;;;;;;;;;;27.08;30.02;98927.28;5013467;27;104274;-69
2023/05/31 10:22:52;;;;;;;;;;;;;;;26.78;30.53;98921.44;5020503;27;103271;-69
2023/05/31 10:25:25;;;;;;;;;;;;;;;26.62;31.20;98924.53;5025655;27;104482;-69
2023/05/31 10:27:55;;;;;;;;;;;;;;;26.80;30.17;98926.69;5022550;27;104083;-69
2023/05/31 10:30:26;;;;;;;;;;;;;;;27.23;29.59;98910.78;5025835;27;103036;-68
2023/05/31 10:33:01;;;;;;;;;;;;;;;28.29;28.09;98903.91;5014361;27;103147;-69
2023/05/31 10:35:28;;;;;;;;;;;;;;;29.36;27.78;98915.38;5030451;27;104107;-69
2023/05/31 10:37:59;;;;;;;;;;;;;;;29.10;28.00;98907.44;5029589;27;103046;-69
2023/05/31 10:40:30;;;;;;;;;;;;;;;29.05;28.71;98908.13;5018834;27;103191;-70
2023/05/31 10:43:01;;;;;;;;;;;;;;;28.81;26.65;98895.38;5024360;27;102788;-69
2023/05/31 10:45:30;;;;;;;;;;;;;;;28.66;27.15;98903.03;5026459;27;103910;-68
2023/05/31 10:48:02;;;;;;;;;;;;;;;28.45;26.30;98893.34;5029308;27;103292;-68
2023/05/31 10:50:30;;;;;;;;;;;;;;;27.86;28.12;98904.53;5018994;27;103214;-68
2023/05/31 10:53:11;;;;;;;;;;;;;;;28.59;27.11;98902.22;5026477;27;102738;-68
2023/05/31 10:55:42;;;;;;;;;;;;;;;28.70;26.86;98894.22;5026909;27;102744;-61
2023/05/31 10:58:24;;;;;;;;;;;;;;;29.59;29.19;98887.47;5017035;27;103161;-61
2023/05/31 11:00:53;;;;;;;;;;;;;;;29.07;26.63;98897.84;5016540;27;103126;-61
2023/05/31 11:03:22;;;;;;;;;;;;;;;29.38;27.22;98880.59;5025182;27;103030;-61
2023/05/31 11:05:57;;;;;;;;;;;;;;;27.99;28.89;98890.88;5022795;27;102665;-68
2023/05/31 11:08:26;;;;;;;;;;;;;;;29.07;27.54;98883.41;4989562;27;104480;-68
2023/05/31 11:11:21;;;;;;;;;;;;;;;28.56;28.33;98880.91;5013753;27;103116;-68
2023/05/31 11:14:02;;;;;;;;;;;;;;;28.59;28.70;98885.91;5015412;27;103162;-67
2023/05/31 11:16:32;;;;;;;;;;;;;;;26.64;29.74;98889.94;5023063;27;102945;-67
2023/05/31 11:19:04;;;;;;;;;;;;;;;26.88;30.21;98880.38;5021890;27;104465;-67
2023/05/31 11:21:46;;;;;;;;;;;;;;;26.52;30.49;98891.63;5014038;27;103451;-66
2023/05/31 11:24:27;;;;;;;;;;;;;;;27.14;31.34;98874.09;5016739;27;102971;-68
2023/05/31 11:26:55;;;;;;;;;;;;;;;27.25;28.18;98870.72;5016554;27;103346;-68
2023/05/31 11:29:23;;;;;;;;;;;;;;;29.13;27.44;98867.03;5021090;27;103987;-62
2023/05/31 11:32:01;;;;;;;;;;;;;;;29.85;26.57;98859.94;5012880;27;103162;-67
2023/05/31 11:34:30;;;;;;;;;;;;;;;29.47;26.74;98860.19;5010060;27;103249;-68
2023/05/31 11:36:59;;;;;;;;;;;;;;;28.81;27.64;98864.63;5021637;27;102995;-68
2023/05/31 11:39:29;;;;;;;;;;;;;;;27.38;28.22;98859.81;5014804;27;103715;-67
2023/05/31 11:41:57;;;;;;;;;;;;;;;27.45;29.09;98855.25;5008776;27;103431;-68
2023/05/31 11:44:28;;;;;;;;;;;;;;;28.22;28.39;98859.66;5002175;27;102685;-68
2023/05/31 11:46:59;;;;;;;;;;;;;;;28.32;26.70;98857.28;5006478;27;102834;-68
2023/05/31 11:49:28;;;;;;;;;;;;;;;28.70;27.52;98855.31;5002810;27;103326;-68
2023/05/31 11:51:56;;;;;;;;;;;;;;;27.41;29.35;98854.00;5010385;27;103745;-67
2023/05/31 11:54:30;;;;;;;;;;;;;;;29.53;26.75;98844.84;5020035;27;102817;-68
2023/05/31 11:57:00;;;;;;;;;;;;;;;28.44;27.29;98850.06;5008843;27;103329;-68
2023/05/31 11:59:28;;;;;;;;;;;;;;;28.66;27.61;98840.53;5005106;27;103411;-68
2023/05/31 12:02:00;;;;;;;;;;;;;;;29.50;26.74;98837.13;5008357;27;103146;-68
2023/05/31 12:04:35;;;;;;;;;;;;;;;29.08;24.87;98842.38;5016768;27;102710;-68
2023/05/31 12:07:04;;;;;;;;;;;;;;;27.76;26.71;98844.47;5007867;27;104339;-68
2023/05/31 12:09:33;;;;;;;;;;;;;;;28.48;25.19;98835.84;5006565;27;103193;-68
2023/05/31 12:12:03;;;;;;;;;;;;;;;29.09;25.17;98844.06;5004958;27;103159;-68
2023/05/31 12:14:31;;;;;;;;;;;;;;;29.87;24.34;98836.00;5013074;27;103093;-68
2023/05/31 12:17:01;;;;;;;;;;;;;;;29.91;24.09;98831.78;5007924;27;104969;-68
2023/05/31 12:19:30;;;;;;;;;;;;;;;29.87;23.79;98836.00;5011763;27;103219;-68
2023/05/31 12:21:58;;;;;;;;;;;;;;;27.21;26.58;98832.34;5020475;27;103154;-68
2023/05/31 12:24:25;;;;;;;;;;;;;;;28.51;25.03;98813.66;5011456;27;102925;-67
2023/05/31 12:26:57;;;;;;;;;;;;;;;29.13;24.33;98825.41;5013188;27;102788;-67
2023/05/31 12:29:28;;;;;;;;;;;;;;;29.21;24.83;98820.50;5015748;27;104181;-68
2023/05/31 12:32:00;;;;;;;;;;;;;;;29.33;24.76;98817.03;5014069;27;103967;-68
2023/05/31 12:34:30;;;;;;;;;;;;;;;29.38;25.21;98826.19;5015471;27;102835;-68
2023/05/31 12:36:59;;;;;;;;;;;;;;;28.23;25.36;98820.56;5011991;27;102918;-68
2023/05/31 12:39:26;;;;;;;;;;;;;;;28.47;24.65;98812.44;5013992;27;103750;-68
2023/05/31 12:41:54;;;;;;;;;;;;;;;27.45;25.04;98811.84;5008171;27;102998;-68
2023/05/31 12:44:24;;;;;;;;;;;;;;;26.74;26.64;98819.91;5007747;27;103668;-60
2023/05/31 12:46:52;;;;;;;;;;;;;;;26.80;26.95;98808.28;5008533;27;103825;-61
2023/05/31 12:49:21;;;;;;;;;;;;;;;27.68;28.19;98809.41;5013810;27;103155;-61
2023/05/31 12:51:49;;;;;;;;;;;;;;;29.01;25.27;98803.56;5014938;27;103167;-61